Time;durP1;ratioP1;P1;durP2;ratioP2;P2;SDS_P1;SDS_P2;PMS_P1;PMS_P2;Temp;Humidity;BMP_temperature;BMP_pressure;BME280_temperature;BME280_humidity;BME280_pressure;Samples;Min_cycle;Max_cycle;Signal;HPM_P1;HPM_P2
2022/05/19 00:02:25;;;;;;;9.20;2.00;;;;;;;10.32;37.99;100771.86;104942;1274;60775;-69
2022/05/19 00:05:13;;;;;;;7.60;2.10;;;;;;;10.27;38.40;100768.48;104861;1273;73155;-69
2022/05/19 00:08:01;;;;;;;7.80;2.20;;;;;;;10.22;38.39;100764.30;104819;1273;69128;-68
2022/05/19 00:10:49;;;;;;;7.30;2.30;;;;;;;10.19;38.27;100765.20;104766;1274;71630;-68
2022/05/19 00:13:37;;;;;;;8.20;2.20;;;;;;;10.17;38.17;100759.32;104802;1273;59769;-68
2022/05/19 00:16:27;;;;;;;7.40;1.90;;;;;;;10.17;38.07;100758.45;104890;1274;59650;-69
2022/05/19 00:19:18;;;;;;;7.90;2.10;;;;;;;10.19;37.91;100759.25;104593;1274;72986;-69
2022/05/19 00:22:06;;;;;;;7.00;2.20;;;;;;;10.20;37.73;100751.85;104755;1273;67797;-68
2022/05/19 00:24:53;;;;;;;6.80;1.80;;;;;;;10.23;37.16;100751.48;105028;1273;73508;-69
2022/05/19 00:27:41;;;;;;;6.80;1.90;;;;;;;10.27;37.59;100751.98;104232;1273;1003112;-67
2022/05/19 00:30:29;;;;;;;6.70;2.40;;;;;;;10.27;37.39;100750.02;104956;1273;59846;-67
2022/05/19 00:33:18;;;;;;;7.00;1.80;;;;;;;10.29;37.21;100747.05;104814;1273;72505;-67
2022/05/19 00:36:13;;;;;;;8.40;2.20;;;;;;;10.30;36.90;100744.65;104751;1274;66790;-69
2022/05/19 00:39:03;;;;;;;8.20;1.90;;;;;;;10.33;37.09;100747.83;104870;1274;71769;-68
2022/05/19 00:44:58;;;;;;;8.90;2.10;;;;;;;10.36;36.87;100737.91;104778;1273;60235;-70
2022/05/19 00:48:22;;;;;;;8.00;2.20;;;;;;;10.36;36.84;100741.61;104775;1274;72853;-67
2022/05/19 00:51:14;;;;;;;5.90;1.70;;;;;;;10.38;36.66;100738.67;104954;1273;69770;-66
2022/05/19 00:54:05;;;;;;;6.60;1.90;;;;;;;10.38;36.62;100737.60;104757;1273;73433;-67
2022/05/19 00:57:27;;;;;;;5.70;1.70;;;;;;;10.37;36.40;100735.88;105098;1274;59865;-68
2022/05/19 01:00:20;;;;;;;7.30;1.90;;;;;;;10.37;36.70;100729.86;104958;1273;61550;-67
2022/05/19 01:03:09;;;;;;;6.90;1.90;;;;;;;10.37;36.20;100729.13;103927;1275;1002699;-66
2022/05/19 01:06:07;;;;;;;6.40;1.60;;;;;;;10.37;36.28;100720.98;104797;1273;68531;-68
2022/05/19 01:09:06;;;;;;;6.40;1.80;;;;;;;10.37;36.42;100721.55;104681;1274;73165;-68
2022/05/19 01:11:56;;;;;;;7.00;1.80;;;;;;;10.34;36.56;100716.23;104733;1274;59666;-66
2022/05/19 01:14:44;;;;;;;6.60;1.70;;;;;;;10.31;36.59;100718.69;104819;1273;60234;-68
2022/05/19 01:17:34;;;;;;;9.30;2.10;;;;;;;10.27;36.72;100711.14;105022;1273;74307;-68
2022/05/19 01:20:26;;;;;;;6.50;1.60;;;;;;;10.27;36.63;100708.18;105174;1273;69155;-68
2022/05/19 01:23:29;;;;;;;6.10;2.00;;;;;;;10.26;36.28;100706.45;104670;1273;73250;-65
2022/05/19 01:26:28;;;;;;;5.90;1.70;;;;;;;10.29;36.45;100710.90;104860;1274;59941;-69
2022/05/19 01:29:19;;;;;;;8.70;1.80;;;;;;;10.29;36.22;100706.95;105084;1274;62357;-66
2022/05/19 01:32:23;;;;;;;6.60;1.70;;;;;;;10.33;35.60;100705.80;104809;1274;73770;-70
2022/05/19 01:35:11;;;;;;;6.60;1.80;;;;;;;10.37;35.91;100710.20;104985;1273;69636;-67
2022/05/19 01:38:24;;;;;;;10.20;1.70;;;;;;;10.36;35.83;100710.05;105075;1274;72099;-68
2022/05/19 01:41:44;;;;;;;10.10;2.10;;;;;;;10.36;36.15;100707.60;104821;1274;59675;-67
2022/05/19 01:44:49;;;;;;;7.20;1.90;;;;;;;10.35;36.17;100705.33;104617;1274;60592;-68
2022/05/19 01:48:01;;;;;;;5.80;1.60;;;;;;;10.32;36.27;100704.44;104861;1274;73648;-68
2022/05/19 01:51:16;;;;;;;6.60;1.80;;;;;;;10.29;36.41;100711.21;104694;1274;68238;-66
2022/05/19 01:54:22;;;;;;;9.50;1.80;;;;;;;10.25;36.74;100715.74;104818;1274;72471;-67
2022/05/19 01:57:27;;;;;;;8.50;1.70;;;;;;;10.19;37.05;100713.61;105254;1274;59742;-67
2022/05/19 02:00:23;;;;;;;6.20;1.80;;;;;;;10.14;37.06;100712.52;104767;1274;59712;-67
2022/05/19 02:03:33;;;;;;;6.20;1.70;;;;;;;10.12;36.78;100706.66;104988;1274;73066;-63
2022/05/19 02:06:37;;;;;;;7.50;1.90;;;;;;;10.12;36.59;100704.71;105158;1274;67200;-67
2022/05/19 02:09:32;;;;;;;7.60;1.90;;;;;;;10.15;36.57;100703.80;104810;1274;73972;-68
2022/05/19 02:12:21;;;;;;;6.90;1.80;;;;;;;10.19;36.22;100703.67;104607;1274;59584;-68
2022/05/19 02:15:14;;;;;;;7.90;1.70;;;;;;;10.26;36.08;100700.64;105016;1274;62422;-67
2022/05/19 02:18:07;;;;;;;10.30;1.50;;;;;;;10.30;36.06;100696.79;104854;1274;74491;-66
2022/05/19 02:20:58;;;;;;;5.80;1.40;;;;;;;10.36;35.53;100696.55;104893;1274;67676;-67
2022/05/19 02:23:47;;;;;;;7.30;1.70;;;;;;;10.44;35.50;100697.34;104937;1274;73561;-67
2022/05/19 02:26:39;;;;;;;6.90;1.70;;;;;;;10.48;35.14;100692.60;104831;1274;59651;-67
2022/05/19 02:29:26;;;;;;;6.10;1.60;;;;;;;10.53;35.11;100691.16;104836;1273;61220;-69
2022/05/19 02:32:14;;;;;;;7.50;1.60;;;;;;;10.59;35.02;100689.91;104691;1274;73850;-68
2022/05/19 02:35:04;;;;;;;7.60;1.70;;;;;;;10.65;35.41;100687.23;104787;1274;67712;-67
2022/05/19 02:37:55;;;;;;;6.90;1.70;;;;;;;10.66;34.98;100685.69;104719;1274;73986;-67
2022/05/19 02:40:44;;;;;;;6.60;1.90;;;;;;;10.68;35.29;100683.64;104808;1273;59674;-67
2022/05/19 02:43:32;;;;;;;7.20;1.80;;;;;;;10.70;35.11;100683.84;104967;1274;61016;-66
2022/05/19 02:46:20;;;;;;;6.70;1.60;;;;;;;10.72;35.53;100690.06;104888;1273;74967;-66
2022/05/19 02:49:08;;;;;;;6.10;1.40;;;;;;;10.73;35.37;100685.59;105104;1274;69095;-66
2022/05/19 02:51:55;;;;;;;5.60;1.80;;;;;;;10.76;35.26;100686.31;104811;1274;73198;-67
2022/05/19 02:54:43;;;;;;;6.90;1.50;;;;;;;10.78;35.21;100688.65;104847;1274;59664;-64
2022/05/19 02:57:31;;;;;;;5.80;1.40;;;;;;;10.80;35.27;100694.66;104892;1274;60396;-67
2022/05/19 03:00:23;;;;;;;6.40;1.50;;;;;;;10.85;34.95;100695.97;104785;1274;72641;-67
2022/05/19 03:03:12;;;;;;;7.70;1.60;;;;;;;10.88;35.40;100698.41;104933;1274;69088;-68
2022/05/19 03:06:00;;;;;;;7.20;1.60;;;;;;;10.91;35.23;100699.09;104780;1274;73536;-66
2022/05/19 03:08:48;;;;;;;6.10;1.60;;;;;;;10.97;34.81;100697.26;105055;1274;59757;-66
2022/05/19 03:11:35;;;;;;;5.70;1.60;;;;;;;11.08;34.24;100694.75;104383;1274;1002958;-67
2022/05/19 03:14:24;;;;;;;7.30;1.60;;;;;;;11.19;34.07;100695.36;105030;1274;74285;-67
2022/05/19 03:17:12;;;;;;;6.60;1.60;;;;;;;11.30;33.89;100695.15;104870;1274;67238;-67
2022/05/19 03:20:01;;;;;;;8.10;1.80;;;;;;;11.43;33.68;100698.33;104907;1273;71974;-67
2022/05/19 03:22:49;;;;;;;6.30;1.50;;;;;;;11.53;33.71;100695.44;104540;1273;59697;-67
2022/05/19 03:25:36;;;;;;;6.90;1.50;;;;;;;11.61;33.55;100691.70;104837;1276;60274;-65
2022/05/19 03:28:26;;;;;;;6.40;1.50;;;;;;;11.77;33.13;100696.77;105020;1273;73911;-66
2022/05/19 03:31:14;;;;;;;7.30;1.50;;;;;;;11.89;32.83;100696.57;105086;1274;68590;-65
2022/05/19 03:34:02;;;;;;;7.40;1.60;;;;;;;12.02;32.78;100695.69;104763;1274;74890;-67
2022/05/19 03:36:51;;;;;;;6.30;1.60;;;;;;;12.13;32.43;100692.06;104638;1274;59642;-64
2022/05/19 03:39:40;;;;;;;9.20;1.50;;;;;;;12.22;32.22;100692.40;104823;1273;60440;-68
2022/05/19 03:42:28;;;;;;;7.30;1.50;;;;;;;12.33;32.20;100691.59;104660;1274;74166;-68
2022/05/19 03:45:16;;;;;;;5.60;1.40;;;;;;;12.42;32.33;100692.37;104820;1274;67046;-66
2022/05/19 03:48:05;;;;;;;6.40;1.30;;;;;;;12.49;32.40;100687.41;104854;1274;73506;-65
2022/05/19 03:50:53;;;;;;;8.10;1.60;;;;;;;12.55;32.26;100686.21;105027;1273;59640;-67
2022/05/19 03:53:41;;;;;;;6.40;1.40;;;;;;;12.62;32.47;100688.55;104706;1274;60321;-66
2022/05/19 03:56:29;;;;;;;8.30;1.50;;;;;;;12.68;32.75;100687.55;104870;1273;74976;-66
2022/05/19 03:59:17;;;;;;;6.70;1.50;;;;;;;12.74;32.66;100685.54;104957;1274;68532;-66
2022/05/19 04:02:05;;;;;;;8.50;1.90;;;;;;;12.78;32.72;100687.81;105107;1274;74449;-65
2022/05/19 04:05:14;;;;;;;8.50;1.60;;;;;;;12.85;32.91;100686.61;105070;1273;59674;-66
2022/05/19 04:08:03;;;;;;;7.10;1.60;;;;;;;12.91;32.69;100686.70;104957;1274;59744;-65
2022/05/19 04:10:50;;;;;;;7.60;1.60;;;;;;;12.98;32.81;100678.11;104553;1274;74699;-69
2022/05/19 04:13:39;;;;;;;7.90;2.30;;;;;;;13.05;32.44;100677.04;105387;1273;68427;-64
2022/05/19 04:16:27;;;;;;;7.30;1.90;;;;;;;13.14;32.72;100675.09;104908;1273;74399;-67
2022/05/19 04:19:16;;;;;;;8.80;1.70;;;;;;;13.23;32.67;100671.14;104522;1273;59688;-69
2022/05/19 04:22:04;;;;;;;6.90;1.60;;;;;;;13.34;32.46;100674.80;104950;1273;60137;-62
2022/05/19 04:24:54;;;;;;;7.70;1.80;;;;;;;13.43;32.26;100673.58;105091;1274;73217;-68
2022/05/19 04:27:41;;;;;;;6.60;1.70;;;;;;;13.54;32.08;100671.82;104928;1273;68473;-67
2022/05/19 04:30:29;;;;;;;6.30;1.60;;;;;;;13.63;32.07;100673.52;104882;1273;72281;-66
2022/05/19 04:33:17;;;;;;;8.00;1.60;;;;;;;13.75;32.04;100675.55;104836;1273;59902;-69
2022/05/19 04:36:06;;;;;;;8.30;1.80;;;;;;;13.88;32.09;100675.45;104870;1273;60108;-68
2022/05/19 04:38:54;;;;;;;7.20;1.60;;;;;;;14.01;31.97;100678.66;105257;1274;73580;-63
2022/05/19 04:41:42;;;;;;;7.20;2.00;;;;;;;14.14;31.66;100678.13;104909;1274;68601;-66
2022/05/19 04:44:29;;;;;;;6.80;1.90;;;;;;;14.30;31.77;100675.92;104859;1273;73824;-66
2022/05/19 04:47:17;;;;;;;9.60;2.40;;;;;;;14.44;30.91;100672.75;104653;1274;59650;-65
2022/05/19 04:50:07;;;;;;;10.30;2.40;;;;;;;14.66;30.94;100675.44;104683;1274;59654;-67
2022/05/19 04:52:58;;;;;;;6.80;2.10;;;;;;;14.86;30.43;100679.27;104633;1274;74500;-64
2022/05/19 04:55:47;;;;;;;7.60;1.90;;;;;;;15.14;30.32;100675.82;104741;1274;69605;-68
2022/05/19 04:58:34;;;;;;;14.10;2.00;;;;;;;15.33;30.04;100677.85;104778;1274;72319;-67
2022/05/19 05:01:23;;;;;;;8.80;1.90;;;;;;;15.40;29.86;100677.05;104769;1274;59784;-67
2022/05/19 05:04:11;;;;;;;7.10;2.00;;;;;;;15.45;29.63;100676.48;104594;1274;60619;-66
2022/05/19 05:06:59;;;;;;;7.90;2.20;;;;;;;15.54;29.39;100677.79;104794;1274;73174;-66
2022/05/19 05:09:47;;;;;;;8.80;1.90;;;;;;;15.76;29.38;100671.92;104668;1273;67917;-66
2022/05/19 05:12:34;;;;;;;9.60;2.10;;;;;;;16.10;28.68;100673.36;104987;1274;73913;-67
2022/05/19 05:15:23;;;;;;;7.90;2.10;;;;;;;16.79;27.60;100677.35;104725;1274;59763;-67
2022/05/19 05:18:12;;;;;;;7.70;2.10;;;;;;;17.65;26.38;100668.45;104907;1274;59699;-68
2022/05/19 05:21:05;;;;;;;9.90;2.30;;;;;;;18.45;25.53;100666.17;104685;1273;73932;-66
2022/05/19 05:23:53;;;;;;;9.30;2.10;;;;;;;19.30;24.00;100661.75;104788;1274;67536;-64
2022/05/19 05:26:42;;;;;;;7.90;1.60;;;;;;;20.21;23.46;100660.85;104622;1275;72325;-66
2022/05/19 05:29:29;;;;;;;9.40;1.80;;;;;;;21.00;22.03;100650.70;104851;1273;59679;-67
2022/05/19 05:32:17;;;;;;;6.70;1.60;;;;;;;21.83;21.14;100647.68;104639;1274;60937;-64
2022/05/19 05:35:08;;;;;;;8.50;1.80;;;;;;;22.65;20.28;100647.02;104698;1273;73827;-66
2022/05/19 05:37:56;;;;;;;8.60;1.90;;;;;;;23.43;19.80;100645.81;104761;1274;67262;-67
2022/05/19 05:40:45;;;;;;;10.20;2.00;;;;;;;23.97;18.85;100649.03;104709;1274;74302;-65
2022/05/19 05:43:35;;;;;;;8.50;1.80;;;;;;;24.70;18.45;100648.59;104801;1274;59698;-65
2022/05/19 05:46:23;;;;;;;7.10;1.80;;;;;;;25.50;17.61;100642.58;104918;1274;61251;-66
2022/05/19 05:49:11;;;;;;;7.30;1.80;;;;;;;26.08;16.92;100634.52;104657;1274;73516;-66
2022/05/19 05:51:59;;;;;;;10.20;1.80;;;;;;;26.46;16.58;100641.02;104660;1274;68324;-65
2022/05/19 05:54:48;;;;;;;8.40;1.70;;;;;;;27.14;16.13;100640.17;104698;1274;74472;-67
2022/05/19 05:57:36;;;;;;;7.90;2.00;;;;;;;27.63;15.43;100636.04;104768;1274;59884;-66
2022/05/19 06:00:25;;;;;;;12.20;2.00;;;;;;;27.60;15.42;100628.65;104823;1273;60699;-68
2022/05/19 06:03:12;;;;;;;9.30;2.00;;;;;;;27.03;15.88;100632.39;104796;1273;72892;-65
2022/05/19 06:06:02;;;;;;;7.00;1.80;;;;;;;27.55;16.09;100633.80;104765;1274;68902;-65
2022/05/19 06:08:51;;;;;;;8.50;1.90;;;;;;;28.07;15.19;100632.38;104661;1274;73811;-67
2022/05/19 06:11:41;;;;;;;9.60;1.60;;;;;;;28.66;15.05;100628.02;105068;1274;59806;-66
2022/05/19 06:14:29;;;;;;;6.30;1.70;;;;;;;29.32;14.79;100625.63;104980;1273;59676;-68
2022/05/19 06:17:19;;;;;;;6.00;1.30;;;;;;;28.84;14.21;100628.38;104767;1273;72794;-68
2022/05/19 06:20:13;;;;;;;7.30;1.60;;;;;;;29.07;14.42;100628.02;104761;1274;69390;-68
2022/05/19 06:23:03;;;;;;;10.20;1.50;;;;;;;29.22;13.91;100627.42;104542;1275;73918;-68
2022/05/19 06:25:51;;;;;;;9.50;1.60;;;;;;;29.49;13.85;100632.53;104709;1274;59961;-69
2022/05/19 06:28:39;;;;;;;7.40;1.40;;;;;;;29.58;13.69;100634.10;104813;1274;59731;-70
2022/05/19 06:31:27;;;;;;;13.40;1.80;;;;;;;29.33;13.40;100634.51;104678;1274;73920;-69
2022/05/19 06:34:15;;;;;;;10.90;1.70;;;;;;;28.84;13.99;100642.23;104655;1275;68103;-71
2022/05/19 06:37:06;;;;;;;11.10;1.80;;;;;;;29.36;14.27;100629.81;104856;1274;72642;-70
2022/05/19 06:39:54;;;;;;;8.80;1.80;;;;;;;30.00;13.55;100626.25;104616;1274;59769;-69
2022/05/19 06:42:44;;;;;;;12.60;2.00;;;;;;;29.50;13.75;100622.68;104841;1274;60624;-70
2022/05/19 06:45:33;;;;;;;8.70;1.90;;;;;;;30.17;13.88;100623.01;104698;1275;72727;-69
2022/05/19 06:48:20;;;;;;;12.00;2.20;;;;;;;31.15;13.38;100616.37;104769;1274;69509;-71
2022/05/19 06:51:08;;;;;;;11.20;2.30;;;;;;;31.50;12.80;100612.26;105021;1274;72235;-68
2022/05/19 06:54:09;;;;;;;7.30;1.60;;;;;;;31.81;12.88;100606.52;104720;1274;59564;-70
2022/05/19 06:56:57;;;;;;;13.80;1.70;;;;;;;31.90;12.58;100601.52;105410;1274;61815;-70
2022/05/19 06:59:45;;;;;;;11.20;1.60;;;;;;;31.81;12.45;100599.09;104919;1274;71808;-70
2022/05/19 07:02:34;;;;;;;8.90;1.50;;;;;;;32.01;12.16;100601.96;105153;1274;69302;-69
2022/05/19 07:05:26;;;;;;;8.20;1.50;;;;;;;32.34;11.79;100599.07;104750;1273;74411;-71
2022/05/19 07:08:14;;;;;;;9.20;1.40;;;;;;;32.75;12.10;100604.16;104677;1274;59650;-74
2022/05/19 07:11:02;;;;;;;9.20;1.50;;;;;;;33.08;11.71;100601.33;104976;1273;61019;-70
2022/05/19 07:14:00;;;;;;;8.20;1.50;;;;;;;33.31;11.63;100593.64;104995;1274;73800;-69
2022/05/19 07:16:49;;;;;;;8.30;1.40;;;;;;;33.01;11.79;100597.98;104608;1275;68648;-69
2022/05/19 07:22:45;;;;;;;8.50;1.40;;;;;;;33.39;11.92;100587.99;104738;1274;59795;-69
2022/05/19 07:25:34;;;;;;;8.30;1.70;;;;;;;33.69;11.32;100588.14;104666;1274;61930;-69
2022/05/19 07:28:22;;;;;;;8.10;1.50;;;;;;;33.82;11.72;100582.82;104822;1274;74873;-72
2022/05/19 07:31:10;;;;;;;8.40;2.70;;;;;;;34.06;11.23;100584.30;104816;1274;68272;-69
2022/05/19 07:33:59;;;;;;;12.70;2.20;;;;;;;34.33;11.19;100579.82;105204;1274;74518;-67
2022/05/19 07:36:50;;;;;;;10.70;1.70;;;;;;;33.82;11.19;100579.04;105109;1274;59855;-69
2022/05/19 07:39:39;;;;;;;11.90;1.60;;;;;;;32.98;11.63;100585.17;105955;1274;59654;-68
2022/05/19 07:42:28;;;;;;;8.80;1.60;;;;;;;32.83;11.93;100584.48;106548;1274;74633;-68
2022/05/19 07:45:16;;;;;;;8.00;2.10;;;;;;;33.01;11.48;100581.06;105982;1273;67920;-67
2022/05/19 07:48:04;;;;;;;7.70;2.20;;;;;;;32.71;11.97;100579.89;106635;1273;71869;-68
2022/05/19 07:50:53;;;;;;;8.20;2.10;;;;;;;32.69;12.22;100581.53;106089;1274;59820;-69
2022/05/19 07:53:41;;;;;;;8.00;1.70;;;;;;;32.54;12.27;100578.59;105172;1274;60534;-70
2022/05/19 07:56:29;;;;;;;10.80;3.20;;;;;;;32.43;12.53;100578.02;105174;1274;74739;-70
2022/05/19 07:59:17;;;;;;;11.40;4.10;;;;;;;32.40;12.67;100572.73;104836;1274;68555;-73
2022/05/19 08:02:05;;;;;;;9.10;1.90;;;;;;;32.13;12.95;100575.39;104805;1274;73542;-72
2022/05/19 08:04:53;;;;;;;6.70;2.10;;;;;;;31.78;13.30;100576.04;104862;1274;59640;-70
2022/05/19 08:07:41;;;;;;;11.30;1.90;;;;;;;30.83;13.81;100569.85;104725;1274;59659;-70
2022/05/19 08:10:29;;;;;;;7.10;1.90;;;;;;;30.41;14.58;100566.77;105011;1274;74911;-71
2022/05/19 08:16:24;;;;;;;8.40;2.00;;;;;;;31.08;14.51;100550.08;104933;1274;71846;-69
2022/05/19 08:19:13;;;;;;;9.10;1.80;;;;;;;31.32;14.13;100545.19;104892;1274;59716;-70
2022/05/19 08:22:01;;;;;;;7.60;1.60;;;;;;;30.87;14.51;100533.08;104757;1274;59645;-70
2022/05/19 08:24:49;;;;;;;8.40;1.70;;;;;;;29.86;15.33;100530.09;104602;1274;73623;-69
2022/05/19 08:27:39;;;;;;;9.20;2.70;;;;;;;29.60;16.04;100528.20;104964;1274;68565;-70
2022/05/19 08:30:27;;;;;;;9.70;5.00;;;;;;;29.74;16.24;100523.75;105059;1274;72771;-72
2022/05/19 08:33:18;;;;;;;10.60;2.00;;;;;;;29.66;16.19;100515.31;104965;1274;59985;-69
2022/05/19 08:36:09;;;;;;;10.60;4.20;;;;;;;29.40;16.60;100515.67;104669;1274;59678;-70
2022/05/19 08:38:57;;;;;;;10.30;2.00;;;;;;;29.57;16.63;100513.44;105014;1274;73494;-69
2022/05/19 08:42:16;;;;;;;9.40;2.00;;;;;;;29.32;16.80;100512.70;104781;1274;67795;-70
2022/05/19 08:45:19;;;;;;;10.00;2.10;;;;;;;29.29;17.08;100516.20;104249;1281;74588;-67
2022/05/19 08:48:13;;;;;;;9.00;2.60;;;;;;;29.42;16.98;100517.98;104327;1281;59857;-70
2022/05/19 08:51:06;;;;;;;12.70;2.10;;;;;;;29.24;17.01;100513.70;104291;1281;61292;-73
2022/05/19 08:54:02;;;;;;;8.80;2.50;;;;;;;29.20;17.14;100514.30;104198;1281;73101;-69
2022/05/19 08:57:28;;;;;;;9.60;2.00;;;;;;;29.98;16.99;100512.12;104477;1281;67803;-72
2022/05/19 09:00:52;;;;;;;8.10;2.50;;;;;;;30.69;16.33;100511.29;104219;1281;74374;-69
2022/05/19 09:04:22;;;;;;;8.90;2.00;;;;;;;31.47;15.75;100510.79;103909;1284;59716;-71
2022/05/19 09:11:12;;;;;;;9.40;3.80;;;;;;;32.61;14.89;100511.15;103550;1284;327934;-70
2022/05/19 09:14:13;;;;;;;15.80;2.50;;;;;;;32.68;15.19;100509.33;104386;1284;68628;-69
2022/05/19 09:17:07;;;;;;;13.60;6.20;;;;;;;32.78;15.12;100507.48;103870;1284;73166;-72
2022/05/19 09:20:02;;;;;;;10.80;4.20;;;;;;;32.74;14.92;100498.39;104041;1284;59958;-70
2022/05/19 09:22:50;;;;;;;9.90;1.70;;;;;;;32.45;15.17;100499.42;104146;1280;61158;-70
2022/05/19 09:25:46;;;;;;;9.50;2.10;;;;;;;31.74;15.69;100494.00;104220;1280;73447;-70
2022/05/19 09:28:35;;;;;;;8.60;2.00;;;;;;;31.53;16.03;100491.81;104257;1280;69574;-69
2022/05/19 09:31:41;;;;;;;10.10;2.10;;;;;;;31.44;16.11;100487.58;104439;1279;74445;-71
2022/05/19 09:34:30;;;;;;;8.90;2.20;;;;;;;31.77;15.96;100491.90;104322;1280;60073;-68
2022/05/19 09:37:51;;;;;;;11.10;3.00;;;;;;;31.93;16.07;100488.41;104226;1280;60416;-71
2022/05/19 09:40:43;;;;;;;13.50;2.60;;;;;;;32.21;15.52;100485.66;104258;1274;73107;-69
2022/05/19 09:43:36;;;;;;;11.90;2.40;;;;;;;32.30;15.73;100479.06;104676;1274;68131;-69
2022/05/19 09:46:39;;;;;;;8.20;3.10;;;;;;;32.33;15.47;100479.06;104935;1274;73386;-69
2022/05/19 09:49:44;;;;;;;9.30;2.30;;;;;;;31.58;16.33;100482.48;104722;1274;59752;-71
2022/05/19 09:52:33;;;;;;;9.20;2.00;;;;;;;30.68;17.08;100479.35;104953;1274;59774;-70
2022/05/19 09:55:24;;;;;;;7.90;2.10;;;;;;;30.39;17.45;100480.91;104660;1274;73862;-70
2022/05/19 09:58:18;;;;;;;8.20;2.10;;;;;;;30.47;17.45;100480.64;104814;1274;69641;-72
2022/05/19 10:01:38;;;;;;;11.30;2.80;;;;;;;31.11;17.04;100479.11;104933;1274;73397;-70
2022/05/19 10:04:42;;;;;;;11.50;3.60;;;;;;;31.77;16.25;100477.59;104898;1274;59738;-69
2022/05/19 10:07:39;;;;;;;8.60;2.20;;;;;;;32.62;15.63;100465.45;104757;1274;60640;-71
2022/05/19 10:10:30;;;;;;;10.00;1.90;;;;;;;33.50;15.17;100460.24;104961;1274;72547;-65
2022/05/19 10:13:19;;;;;;;10.10;1.90;;;;;;;33.96;14.82;100459.61;104694;1274;68557;-69
2022/05/19 10:16:13;;;;;;;11.20;1.90;;;;;;;34.19;14.73;100461.40;104965;1274;72584;-70
2022/05/19 10:19:25;;;;;;;8.20;2.00;;;;;;;34.38;14.70;100462.20;104951;1273;59816;-72
2022/05/19 10:22:52;;;;;;;9.90;2.80;;;;;;;34.79;14.42;100455.25;104937;1274;61305;-72
2022/05/19 10:26:14;;;;;;;9.10;2.50;;;;;;;34.74;14.55;100446.48;105071;1274;73661;-70
2022/05/19 10:33:36;;;;;;;8.10;3.30;;;;;;;35.04;14.73;100444.52;104812;1273;73558;-69
2022/05/19 10:37:18;;;;;;;10.50;4.30;;;;;;;35.44;14.87;100438.63;104939;1274;59695;-70
2022/05/19 10:40:38;;;;;;;9.80;2.10;;;;;;;36.03;13.97;100441.84;105103;1273;60505;-76
2022/05/19 10:44:00;;;;;;;14.50;8.50;;;;;;;36.06;13.73;100437.13;104822;1274;73394;-71
2022/05/19 10:47:00;;;;;;;6.30;2.30;;;;;;;36.39;13.94;100427.33;105058;1273;66887;-69
2022/05/19 10:50:25;;;;;;;8.50;3.50;;;;;;;36.84;13.78;100417.75;104876;1273;74464;-74
2022/05/19 10:53:50;;;;;;;10.40;2.40;;;;;;;37.19;13.22;100413.75;104963;1274;59826;-68
2022/05/19 10:56:57;;;;;;;9.40;2.10;;;;;;;37.20;13.22;100407.52;105120;1273;59816;-72
2022/05/19 11:00:15;;;;;;;10.70;2.20;;;;;;;37.39;13.19;100406.29;104972;1273;73661;-71
2022/05/19 11:03:57;;;;;;;8.10;1.80;;;;;;;37.27;12.86;100407.86;104901;1273;69578;-68
2022/05/19 11:07:07;;;;;;;10.30;3.80;;;;;;;36.70;12.92;100413.23;104403;1279;74571;-68
2022/05/19 11:10:13;;;;;;;8.60;2.30;;;;;;;36.27;13.49;100411.52;104670;1279;59842;-72
2022/05/19 11:13:45;;;;;;;10.40;3.60;;;;;;;35.79;13.88;100411.46;104430;1279;59685;-72
2022/05/19 11:16:48;;;;;;;6.90;1.80;;;;;;;34.49;14.74;100398.42;104248;1280;74061;-70
2022/05/19 11:19:54;;;;;;;13.80;4.10;;;;;;;33.27;15.71;100398.08;104508;1279;67916;-73
2022/05/19 11:22:46;;;;;;;6.40;2.10;;;;;;;32.50;16.49;100397.22;104322;1279;73385;-71
2022/05/19 11:29:26;;;;;;;7.40;2.30;;;;;;;32.20;16.74;100393.05;104499;1280;59744;-72
2022/05/19 11:32:35;;;;;;;7.60;2.00;;;;;;;31.91;17.15;100394.94;104516;1279;72659;-69
2022/05/19 11:35:35;;;;;;;7.50;1.80;;;;;;;31.39;17.22;100392.90;104603;1279;69776;-69
2022/05/19 11:38:34;;;;;;;8.90;2.10;;;;;;;30.53;18.25;100390.13;104238;1279;73419;-70
2022/05/19 11:41:28;;;;;;;9.20;2.20;;;;;;;30.27;18.56;100383.05;104479;1273;59575;-69
2022/05/19 11:44:28;;;;;;;8.40;2.00;;;;;;;30.07;18.80;100380.36;104801;1275;59695;-67
2022/05/19 11:55:27;;;;;;;7.60;2.00;;;;;;;29.14;19.59;100370.30;104929;1274;74492;-69
2022/05/19 11:58:28;;;;;;;7.90;2.20;;;;;;;28.73;20.12;100367.58;105366;1273;59936;-72
2022/05/19 12:01:37;;;;;;;6.70;1.80;;;;;;;28.44;20.81;100364.79;104731;1273;60975;-67
2022/05/19 12:04:32;;;;;;;7.50;2.00;;;;;;;28.41;20.45;100357.48;104985;1274;73684;-70
2022/05/19 12:07:36;;;;;;;6.30;2.00;;;;;;;28.50;20.64;100353.71;104930;1274;67499;-68
2022/05/19 12:10:53;;;;;;;7.20;1.90;;;;;;;28.70;20.88;100345.92;104724;1273;72921;-69
2022/05/19 12:14:06;;;;;;;7.90;2.20;;;;;;;28.57;20.51;100344.52;105105;1274;59756;-70
2022/05/19 12:17:13;;;;;;;8.70;2.10;;;;;;;28.38;20.46;100340.92;104728;1274;60249;-67
2022/05/19 12:20:02;;;;;;;6.70;2.10;;;;;;;28.42;20.71;100334.70;105041;1273;74613;-70
2022/05/19 12:23:41;;;;;;;6.90;2.50;;;;;;;28.53;20.81;100332.20;104924;1273;69045;-69
2022/05/19 12:26:51;;;;;;;8.50;1.90;;;;;;;28.37;21.03;100329.52;104469;1281;74391;-68
2022/05/19 12:29:39;;;;;;;9.40;2.10;;;;;;;28.31;21.10;100328.27;104447;1279;59878;-68
2022/05/19 12:32:36;;;;;;;8.90;2.10;;;;;;;28.27;21.23;100323.48;104232;1281;60937;-66
2022/05/19 12:35:26;;;;;;;8.90;2.00;;;;;;;28.26;21.00;100321.94;104289;1281;72182;-72
2022/05/19 12:38:45;;;;;;;9.40;2.00;;;;;;;28.19;21.03;100312.27;104628;1281;67492;-69
2022/05/19 12:41:38;;;;;;;8.30;2.30;;;;;;;28.11;21.56;100309.97;103888;1284;74425;-67
2022/05/19 12:44:39;;;;;;;8.40;2.20;;;;;;;28.14;21.55;100303.31;103664;1285;59903;-71
2022/05/19 12:47:30;;;;;;;8.40;2.40;;;;;;;28.12;21.24;100300.58;104037;1285;59585;-68
2022/05/19 12:50:22;;;;;;;11.70;2.20;;;;;;;27.92;21.69;100300.23;103652;1285;74146;-69
2022/05/19 12:53:42;;;;;;;10.90;2.50;;;;;;;27.89;21.43;100293.71;103654;1286;68396;-69
2022/05/19 12:56:40;;;;;;;7.80;2.00;;;;;;;27.84;21.72;100290.95;103656;1285;73412;-72
2022/05/19 12:59:39;;;;;;;7.60;2.30;;;;;;;27.82;21.59;100286.05;103679;1285;60162;-69
2022/05/19 13:02:35;;;;;;;8.90;2.10;;;;;;;27.85;22.20;100285.60;103869;1281;59888;-69
2022/05/19 13:05:45;;;;;;;10.80;2.50;;;;;;;27.91;22.18;100285.94;104188;1280;73856;-69
2022/05/19 13:08:43;;;;;;;8.40;2.30;;;;;;;27.96;22.34;100283.08;104151;1281;68108;-68
2022/05/19 13:11:36;;;;;;;7.40;2.30;;;;;;;27.92;21.89;100279.52;104091;1281;73420;-69
2022/05/19 13:14:40;;;;;;;7.50;2.10;;;;;;;27.75;22.20;100279.39;104191;1279;59920;-67
2022/05/19 13:17:42;;;;;;;9.10;2.20;;;;;;;27.56;22.49;100278.90;104444;1274;61518;-69
2022/05/19 13:20:49;;;;;;;8.60;2.20;;;;;;;27.58;22.48;100276.82;104797;1273;72514;-69
2022/05/19 13:23:40;;;;;;;8.10;2.10;;;;;;;27.58;22.53;100271.80;104674;1274;68444;-67
2022/05/19 13:26:31;;;;;;;8.60;2.30;;;;;;;27.57;22.54;100270.83;104596;1274;73471;-67
2022/05/19 13:32:35;;;;;;;7.20;2.30;;;;;;;27.39;22.65;100260.49;105061;1274;59577;-71
2022/05/19 13:35:26;;;;;;;6.80;2.30;;;;;;;27.34;22.77;100262.99;104734;1273;73926;-69
2022/05/19 13:38:22;;;;;;;6.90;2.10;;;;;;;27.16;22.90;100260.30;104975;1273;68765;-67
2022/05/19 13:41:12;;;;;;;7.80;2.30;;;;;;;27.05;22.99;100250.39;104759;1273;74353;-70
2022/05/19 13:44:07;;;;;;;7.80;2.70;;;;;;;27.14;22.96;100250.95;104862;1273;59873;-67
2022/05/19 13:46:56;;;;;;;8.40;2.40;;;;;;;27.16;23.03;100234.75;104858;1273;61064;-68
2022/05/19 13:50:09;;;;;;;8.40;2.30;;;;;;;27.17;23.20;100243.45;104698;1274;73705;-73
2022/05/19 13:53:04;;;;;;;6.90;2.20;;;;;;;27.01;23.53;100239.30;105106;1274;68277;-67
2022/05/19 13:55:58;;;;;;;6.70;1.90;;;;;;;27.10;23.06;100228.80;104866;1274;74409;-69